Česky Dansk Deutsch English Español Suomi Français Magyar Italiano Nederlands norsk Polski Português svenska Türkçe

 

Het Weer

Garoua (Cameroon)

05:00, 6 augustus 2016 (GMT)

NWNNE
WE
SWSSE
Home            
Garoua Yola Maroua-Salak Pala Ngaoundere Maiduguri Moundou Meiganga Banyo Ndjamena Betare-Oya Yoko Bouar Diffa Maine-Soroa Bol-Berim Jos Koundja Bamenda Bokoro Bossangoa Sarh Batouri

Om een weerknop op uw website of weblog te plaatsen, copieer onderstaande code en plak die in uw pagina. In het eerste vakje staat HTML-code, in het tweede vakje UBB-code.


Add to Google

Details

Wind speed:2 bf, 4 kn, 2.1 m/s, 4.6 miles/h, 7.4 km/h
Wind direction:WNW, 290°
Visibilidade global:Maior de 10000 m, 10 km, 32800 ft, 6.2 miles
Clouds:Algumas nuvens at 1600 ft, 488 m
Temperatura:24°C, 75°F
Sensaço térmica:23°C, 73°F
Ponto de orvalho:23°C, 73°F
Pressão atmosférica:1012 hPa, 759.1 mmHg, 29.88 inHg, 0.999 atm
Humidade relativa:94.2 %
METAR:FKKR 060500Z 29004KT 9999 FEW016 24/23 Q1012

Snelkoppelingen

Actuele weersinformatie van de hele wereld. Voeg locaties toe met het plus (+) symbool. Deze snelkoppelingen kunnen worden toegevoegd aan Google.

Lid van de Technetium groep

website free tracking
StatCounter NetStat W3C Validator

25-04-2018 10:13:33
astro.technetium.be money.technetium.be phote.technetium.be tafeltennistafel.technetium.be www.ligfiets.net